createdAt,value
2017-11-24T00:00:40.452Z,96.65
2017-11-24T00:03:07.980Z,96.88
2017-11-24T00:05:35.480Z,97.68
2017-11-24T00:08:02.975Z,97.75
2017-11-24T00:10:30.476Z,98.00
2017-11-24T00:12:57.998Z,98.95
2017-11-24T00:15:25.535Z,99.49
2017-11-24T00:17:53.061Z,99.23
2017-11-24T00:20:20.560Z,98.67
2017-11-24T00:22:48.090Z,98.78
2017-11-24T00:25:15.644Z,99.11
2017-11-24T00:27:43.155Z,99.15
2017-11-24T00:30:10.662Z,98.88
2017-11-24T00:32:38.179Z,98.60
2017-11-24T00:35:05.706Z,98.27
2017-11-24T00:37:44.957Z,97.53
2017-11-24T00:40:12.452Z,96.28
2017-11-24T00:42:39.952Z,95.90
2017-11-24T00:45:07.477Z,94.99
2017-11-24T00:47:35.181Z,94.44
2017-11-24T00:50:02.708Z,94.71
2017-11-24T00:52:30.294Z,97.35
2017-11-24T00:54:57.799Z,98.27
2017-11-24T00:57:25.316Z,98.12
2017-11-24T00:59:52.820Z,97.41
2017-11-24T01:02:20.725Z,95.98
2017-11-24T01:04:48.272Z,95.21
2017-11-24T01:07:15.780Z,94.48
2017-11-24T01:09:43.293Z,94.38
2017-11-24T01:12:10.804Z,95.87
2017-11-24T01:14:38.326Z,97.42
2017-11-24T01:17:05.822Z,96.68
2017-11-24T01:19:33.320Z,97.12
2017-11-24T01:22:00.822Z,96.30
2017-11-24T01:24:28.347Z,95.39
2017-11-24T01:26:55.856Z,93.80
2017-11-24T01:29:23.375Z,93.05
2017-11-24T01:31:50.871Z,94.70
2017-11-24T01:34:18.366Z,97.53
2017-11-24T01:36:45.865Z,96.57
2017-11-24T01:39:13.363Z,95.50
2017-11-24T01:41:40.876Z,94.90
2017-11-24T01:44:08.406Z,96.51
2017-11-24T01:46:35.958Z,96.99
2017-11-24T01:49:03.465Z,98.24
2017-11-24T01:51:30.964Z,98.66
2017-11-24T01:53:58.464Z,97.89
2017-11-24T01:56:25.960Z,96.27
2017-11-24T01:58:53.475Z,93.92
2017-11-24T02:01:20.980Z,94.61
2017-11-24T02:03:48.497Z,95.24
2017-11-24T02:06:15.998Z,95.74
2017-11-24T02:08:43.503Z,95.99
2017-11-24T02:11:12.690Z,96.35
2017-11-24T02:13:40.198Z,95.71
2017-11-24T02:16:07.727Z,94.23
2017-11-24T02:18:35.233Z,94.24
2017-11-24T02:21:02.743Z,94.33
2017-11-24T02:23:30.253Z,95.71
2017-11-24T02:25:57.765Z,97.25
2017-11-24T02:28:25.283Z,98.36
2017-11-24T02:30:52.780Z,98.29
2017-11-24T02:33:20.297Z,97.67
2017-11-24T02:35:47.813Z,96.88
2017-11-24T02:38:15.342Z,95.96
2017-11-24T02:40:42.838Z,95.24
2017-11-24T02:43:10.935Z,95.55
2017-11-24T02:45:38.453Z,96.25
2017-11-24T02:48:05.947Z,96.29
2017-11-24T02:50:33.460Z,95.04
2017-11-24T02:53:00.975Z,95.27
2017-11-24T02:55:29.376Z,93.90
2017-11-24T02:57:57.518Z,95.04
2017-11-24T03:00:25.033Z,96.50
2017-11-24T03:02:52.565Z,97.60
2017-11-24T03:05:20.070Z,98.58
2017-11-24T03:07:47.576Z,99.37
2017-11-24T03:10:15.067Z,99.44
2017-11-24T03:12:42.568Z,99.47
2017-11-24T03:15:10.090Z,98.63
2017-11-24T03:17:37.587Z,98.26
2017-11-24T03:20:05.100Z,98.37
2017-11-24T03:22:32.640Z,98.44
2017-11-24T03:25:00.145Z,98.81
2017-11-24T03:27:27.644Z,99.60
2017-11-24T03:29:55.148Z,98.72
2017-11-24T03:32:22.647Z,99.09
2017-11-24T03:34:50.159Z,99.27
2017-11-24T03:37:17.655Z,99.49
2017-11-24T03:39:45.140Z,99.49
2017-11-24T03:42:12.648Z,99.68
2017-11-24T03:44:40.139Z,99.04
2017-11-24T03:47:07.660Z,98.69
2017-11-24T03:49:35.168Z,99.17
2017-11-24T03:52:02.664Z,99.18
2017-11-24T03:54:30.166Z,98.95
2017-11-24T03:56:57.678Z,99.13
2017-11-24T03:59:25.190Z,98.86
2017-11-24T04:01:52.689Z,98.35
2017-11-24T04:04:20.192Z,98.68
2017-11-24T04:06:47.683Z,99.01
2017-11-24T04:09:15.163Z,98.91
2017-11-24T04:11:42.673Z,98.63
2017-11-24T04:14:10.182Z,98.26
2017-11-24T04:16:37.674Z,97.96
2017-11-24T04:19:05.165Z,98.92
2017-11-24T04:21:32.663Z,99.39
2017-11-24T04:24:00.352Z,99.41
2017-11-24T04:26:27.856Z,99.78
2017-11-24T04:28:55.354Z,99.83
2017-11-24T04:31:22.862Z,100.00
2017-11-24T04:33:50.362Z,99.79
2017-11-24T04:36:17.854Z,99.65
2017-11-24T04:38:45.353Z,99.43
2017-11-24T04:41:12.850Z,99.31
2017-11-24T04:43:40.362Z,100.00
2017-11-24T04:48:43.156Z,100.00
2017-11-24T04:51:17.423Z,100.00
2017-11-24T04:53:44.934Z,99.96
2017-11-24T04:56:12.433Z,99.67
2017-11-24T04:58:39.931Z,100.00
2017-11-24T05:01:07.439Z,100.00
2017-11-24T05:03:34.951Z,100.00
2017-11-24T05:06:02.457Z,100.00
2017-11-24T05:08:29.965Z,99.52
2017-11-24T05:10:57.486Z,98.01
2017-11-24T05:13:24.982Z,98.08
2017-11-24T05:15:52.483Z,98.35
2017-11-24T05:18:19.974Z,99.30
2017-11-24T05:20:47.496Z,99.87
2017-11-24T05:23:15.031Z,99.86
2017-11-24T05:25:42.525Z,99.81
2017-11-24T05:28:10.028Z,99.79
2017-11-24T05:30:37.537Z,99.28
2017-11-24T05:33:05.039Z,98.86
2017-11-24T05:35:32.540Z,98.18
2017-11-24T05:38:00.057Z,98.58
2017-11-24T05:40:27.571Z,98.40
2017-11-24T05:42:56.144Z,98.26
2017-11-24T05:45:23.647Z,98.48
2017-11-24T05:47:51.164Z,98.48
2017-11-24T05:50:18.655Z,97.94
2017-11-24T05:52:46.160Z,98.62
2017-11-24T05:55:13.668Z,98.75
2017-11-24T05:57:41.163Z,99.05
2017-11-24T06:00:08.682Z,98.99
2017-11-24T06:02:36.180Z,98.52
2017-11-24T06:05:03.678Z,98.34
2017-11-24T06:07:31.179Z,98.14
2017-11-24T06:09:58.690Z,98.59
2017-11-24T06:12:26.180Z,98.08
2017-11-24T06:14:53.673Z,97.58
2017-11-24T06:17:21.180Z,96.99
2017-11-24T06:19:48.692Z,97.53
2017-11-24T06:22:16.211Z,97.66
2017-11-24T06:24:43.739Z,98.13
2017-11-24T06:27:11.373Z,98.61
2017-11-24T06:29:38.897Z,99.41
2017-11-24T06:32:06.419Z,99.37
2017-11-24T06:34:33.938Z,98.72
2017-11-24T06:37:01.439Z,98.58
2017-11-24T06:39:28.958Z,98.30
2017-11-24T06:41:56.467Z,97.66
2017-11-24T06:44:23.951Z,97.02
2017-11-24T06:46:51.482Z,97.93
2017-11-24T06:49:18.978Z,98.02
2017-11-24T06:51:46.488Z,98.38
2017-11-24T06:54:13.996Z,98.86
2017-11-24T06:56:41.490Z,98.54
2017-11-24T06:59:09.028Z,98.28
2017-11-24T07:01:36.530Z,97.72
2017-11-24T07:04:04.063Z,97.83
2017-11-24T07:06:31.560Z,98.12
2017-11-24T07:08:59.073Z,98.80
2017-11-24T07:11:26.579Z,99.44
2017-11-24T07:13:54.838Z,99.03
2017-11-24T07:16:22.369Z,98.96
2017-11-24T07:18:49.879Z,99.28
2017-11-24T07:21:17.385Z,99.93
2017-11-24T07:23:44.879Z,99.93
2017-11-24T07:26:12.383Z,100.00
2017-11-24T07:28:39.881Z,100.00
2017-11-24T07:31:07.389Z,100.00
2017-11-24T07:33:34.897Z,99.14
2017-11-24T07:36:02.390Z,98.61
2017-11-24T07:38:29.911Z,99.04
2017-11-24T07:40:57.412Z,99.73
2017-11-24T07:43:24.933Z,100.00
2017-11-24T07:45:52.514Z,99.95
2017-11-24T07:48:20.030Z,99.35
2017-11-24T07:50:47.624Z,98.37
2017-11-24T07:53:15.144Z,96.62
2017-11-24T07:55:42.661Z,96.53
2017-11-24T07:58:10.173Z,95.46
2017-11-24T08:00:37.698Z,95.37
2017-11-24T08:03:05.191Z,95.42
2017-11-24T08:05:32.738Z,93.78
2017-11-24T08:08:00.237Z,91.79
2017-11-24T08:10:27.747Z,90.24
2017-11-24T08:12:55.271Z,90.73
2017-11-24T08:15:22.775Z,90.15
2017-11-24T08:17:50.283Z,88.39
2017-11-24T08:20:17.801Z,89.18
2017-11-24T08:22:45.300Z,89.80
2017-11-24T08:25:12.815Z,87.05
2017-11-24T08:27:40.317Z,86.87
2017-11-24T08:30:07.833Z,83.64
2017-11-24T08:32:35.358Z,84.83
2017-11-24T08:35:03.841Z,83.47
2017-11-24T08:37:31.340Z,82.79
2017-11-24T08:39:58.859Z,79.01
2017-11-24T08:42:26.362Z,77.25
2017-11-24T08:44:53.880Z,74.16
2017-11-24T08:47:27.703Z,75.51
2017-11-24T08:49:55.206Z,71.45
2017-11-24T08:52:22.720Z,64.95
2017-11-24T08:54:50.232Z,57.00
2017-11-24T08:57:17.766Z,54.64
2017-11-24T08:59:45.291Z,60.88
2017-11-24T09:02:12.802Z,64.11
2017-11-24T09:04:40.301Z,67.24
2017-11-24T09:07:07.799Z,70.70
2017-11-24T09:09:35.337Z,75.12
2017-11-24T09:12:02.840Z,78.44
2017-11-24T09:14:30.352Z,82.70
2017-11-24T09:16:57.999Z,81.00
2017-11-24T09:19:25.545Z,75.30
2017-11-24T09:21:53.050Z,72.94
2017-11-24T09:24:20.548Z,71.71
2017-11-24T09:26:48.054Z,69.15
2017-11-24T09:29:15.548Z,68.20
2017-11-24T09:31:43.082Z,66.85
2017-11-24T09:34:10.597Z,62.13
2017-11-24T09:36:38.089Z,66.38
2017-11-24T09:39:05.594Z,63.57
2017-11-24T09:41:33.118Z,60.86
2017-11-24T09:44:00.622Z,62.03
2017-11-24T09:46:28.118Z,59.00
2017-11-24T09:48:55.728Z,54.52
2017-11-24T09:51:23.269Z,55.95
2017-11-24T09:53:50.803Z,58.74
2017-11-24T09:56:18.314Z,58.38
2017-11-24T09:58:45.837Z,59.77
2017-11-24T10:01:13.347Z,51.95
2017-11-24T10:03:40.868Z,52.52
2017-11-24T10:06:08.374Z,48.85
2017-11-24T10:08:35.891Z,45.56
2017-11-24T10:11:03.395Z,47.84
2017-11-24T10:13:30.900Z,50.94
2017-11-24T10:15:58.391Z,54.62
2017-11-24T10:18:25.887Z,55.09
2017-11-24T10:20:59.007Z,50.10
2017-11-24T10:23:26.506Z,47.81
2017-11-24T10:25:54.022Z,41.38
2017-11-24T10:28:21.534Z,37.71
2017-11-24T10:30:49.046Z,34.94
2017-11-24T10:33:16.543Z,34.74
2017-11-24T10:35:44.072Z,38.73
2017-11-24T10:38:11.575Z,41.46
2017-11-24T10:40:39.068Z,38.90
2017-11-24T10:43:06.599Z,44.70
2017-11-24T10:45:34.101Z,45.08
2017-11-24T10:48:01.599Z,39.23
2017-11-24T10:50:29.124Z,40.06
2017-11-24T10:52:56.652Z,35.85
2017-11-24T10:55:24.163Z,34.61
2017-11-24T10:57:51.718Z,36.52
2017-11-24T11:00:19.223Z,33.25
2017-11-24T11:02:46.728Z,32.15
2017-11-24T11:05:14.261Z,30.07
2017-11-24T11:07:41.771Z,32.08
2017-11-24T11:10:09.305Z,31.19
2017-11-24T11:12:36.823Z,32.82
2017-11-24T11:15:04.334Z,30.86
2017-11-24T11:17:31.865Z,30.73
2017-11-24T11:19:59.375Z,28.87
2017-11-24T11:22:26.871Z,27.59
2017-11-24T11:24:54.378Z,26.66
2017-11-24T11:27:21.871Z,29.40
2017-11-24T11:29:49.380Z,30.60
2017-11-24T11:32:16.898Z,32.81
2017-11-24T11:34:44.402Z,42.08
2017-11-24T11:37:11.909Z,46.04
2017-11-24T11:39:39.428Z,48.93
2017-11-24T11:42:06.935Z,51.28
2017-11-24T11:44:34.439Z,53.34
2017-11-24T11:47:01.978Z,53.15
2017-11-24T11:49:29.481Z,50.30
2017-11-24T11:51:56.998Z,49.15
2017-11-24T11:54:24.517Z,52.07
2017-11-24T11:56:52.023Z,52.52
2017-11-24T11:59:19.556Z,53.04
2017-11-24T12:01:47.058Z,51.84
2017-11-24T12:04:14.593Z,50.48
2017-11-24T12:06:42.088Z,52.61
2017-11-24T12:09:09.586Z,53.31
2017-11-24T12:11:37.095Z,53.18
2017-11-24T12:14:04.767Z,52.75
2017-11-24T12:16:32.282Z,52.41
2017-11-24T12:18:59.791Z,53.68
2017-11-24T12:21:27.287Z,54.68
2017-11-24T12:23:54.803Z,55.10
2017-11-24T12:26:22.341Z,55.41
2017-11-24T12:28:49.855Z,53.69
2017-11-24T12:31:17.359Z,56.48
2017-11-24T12:33:44.867Z,54.94
2017-11-24T12:36:12.395Z,54.75
2017-11-24T12:38:39.891Z,56.13
2017-11-24T12:41:07.418Z,56.72
2017-11-24T12:43:34.911Z,56.42
2017-11-24T12:46:02.423Z,57.28
2017-11-24T12:48:30.068Z,56.92
2017-11-24T12:50:57.558Z,57.95
2017-11-24T12:53:25.143Z,59.25
2017-11-24T12:55:52.706Z,57.72
2017-11-24T12:58:20.239Z,56.94
2017-11-24T13:00:47.878Z,57.84
2017-11-24T13:03:15.415Z,57.54
2017-11-24T13:05:42.933Z,57.55
2017-11-24T13:08:10.439Z,58.17
2017-11-24T13:10:37.936Z,58.22
2017-11-24T13:13:05.431Z,58.05
2017-11-24T13:15:32.948Z,58.69
2017-11-24T13:18:00.446Z,59.60
2017-11-24T13:20:27.967Z,59.68
2017-11-24T13:22:55.460Z,59.60
2017-11-24T13:25:22.961Z,60.55
2017-11-24T13:27:50.452Z,60.87
2017-11-24T13:30:17.964Z,61.90
2017-11-24T13:32:45.461Z,60.74
2017-11-24T13:35:12.971Z,60.97
2017-11-24T13:37:40.472Z,62.13
2017-11-24T13:40:07.985Z,60.44
2017-11-24T13:42:35.480Z,61.43
2017-11-24T13:45:03.068Z,61.90
2017-11-24T13:47:30.559Z,62.48
2017-11-24T13:49:58.130Z,62.96
2017-11-24T13:52:26.594Z,63.67
2017-11-24T13:54:54.132Z,63.67
2017-11-24T13:57:21.653Z,64.94
2017-11-24T13:59:49.163Z,64.02
2017-11-24T14:02:16.661Z,65.39
2017-11-24T14:04:44.172Z,67.42
2017-11-24T14:07:11.699Z,68.17
2017-11-24T14:09:39.230Z,69.83
2017-11-24T14:12:06.723Z,70.38
2017-11-24T14:14:34.216Z,69.40
2017-11-24T14:17:01.726Z,69.59
2017-11-24T14:19:29.225Z,70.65
2017-11-24T14:21:56.747Z,71.32
2017-11-24T14:24:24.233Z,71.53
2017-11-24T14:26:52.023Z,72.14
2017-11-24T14:29:19.542Z,73.26
2017-11-24T14:31:47.060Z,72.45
2017-11-24T14:34:14.562Z,72.71
2017-11-24T14:36:42.067Z,72.78
2017-11-24T14:39:09.577Z,72.33
2017-11-24T14:41:37.072Z,72.73
2017-11-24T14:44:04.565Z,72.75
2017-11-24T14:46:32.103Z,73.86
2017-11-24T14:48:59.599Z,73.26
2017-11-24T14:51:27.104Z,72.84
2017-11-24T14:53:54.604Z,73.02
2017-11-24T14:56:22.160Z,73.08
2017-11-24T14:58:49.694Z,73.04
2017-11-24T15:01:17.213Z,72.97
2017-11-24T15:03:44.762Z,74.38
2017-11-24T15:06:12.278Z,74.60
2017-11-24T15:08:39.775Z,75.45
2017-11-24T15:11:07.278Z,75.05
2017-11-24T15:13:34.821Z,74.49
2017-11-24T15:16:02.330Z,75.87
2017-11-24T15:18:29.862Z,75.70
2017-11-24T15:20:57.371Z,76.85
2017-11-24T15:23:24.893Z,77.20
2017-11-24T15:25:52.409Z,79.16
2017-11-24T15:28:19.919Z,79.23
2017-11-24T15:30:47.423Z,81.29
2017-11-24T15:33:14.923Z,81.02
2017-11-24T15:35:42.428Z,81.62
2017-11-24T15:38:09.931Z,81.19
2017-11-24T15:40:37.472Z,79.89
2017-11-24T15:43:05.054Z,79.92
2017-11-24T15:45:32.571Z,79.60
2017-11-24T15:48:00.079Z,81.51
2017-11-24T15:50:27.586Z,81.33
2017-11-24T15:52:55.120Z,81.16
2017-11-24T15:55:22.610Z,81.51
2017-11-24T15:57:50.114Z,82.16
2017-11-24T16:00:17.640Z,82.02
2017-11-24T16:02:45.162Z,82.09
2017-11-24T16:05:12.660Z,82.21
2017-11-24T16:07:40.202Z,82.63
2017-11-24T16:10:07.944Z,83.18
2017-11-24T16:12:35.474Z,82.76
2017-11-24T16:15:02.996Z,81.79
2017-11-24T16:17:30.507Z,82.11
2017-11-24T16:19:58.056Z,83.80
2017-11-24T16:22:25.570Z,84.44
2017-11-24T16:24:53.063Z,87.08
2017-11-24T16:27:20.597Z,90.52
2017-11-24T16:29:48.136Z,89.65
2017-11-24T16:32:15.731Z,89.09
2017-11-24T16:34:43.228Z,87.40
2017-11-24T16:37:10.747Z,87.69
2017-11-24T16:39:38.245Z,87.66
2017-11-24T16:42:05.762Z,90.17
2017-11-24T16:44:33.289Z,88.88
2017-11-24T16:47:00.912Z,91.28
2017-11-24T16:49:28.471Z,91.27
2017-11-24T16:51:56.035Z,91.42
2017-11-24T16:54:23.555Z,90.09
2017-11-24T16:56:51.105Z,90.05
2017-11-24T16:59:18.668Z,91.84
2017-11-24T17:01:46.219Z,91.86
2017-11-24T17:04:13.962Z,92.19
2017-11-24T17:06:42.413Z,90.93
2017-11-24T17:09:09.903Z,90.41
2017-11-24T17:11:37.418Z,91.85
2017-11-24T17:14:04.978Z,91.57
2017-11-24T17:16:32.497Z,91.08
2017-11-24T17:19:00.018Z,89.96
2017-11-24T17:21:27.515Z,89.51
2017-11-24T17:23:55.028Z,87.71
2017-11-24T17:26:22.539Z,88.52
2017-11-24T17:28:50.196Z,89.43
2017-11-24T17:31:17.709Z,91.10
2017-11-24T17:33:45.231Z,89.75
2017-11-24T17:36:12.756Z,88.17
2017-11-24T17:38:40.259Z,89.36
2017-11-24T17:41:07.755Z,87.13
2017-11-24T17:43:35.284Z,84.74
2017-11-24T17:46:02.857Z,84.16
2017-11-24T17:48:30.371Z,85.04
2017-11-24T17:50:57.877Z,81.21
2017-11-24T17:53:25.409Z,80.78
2017-11-24T17:55:52.914Z,80.56
2017-11-24T17:58:20.429Z,79.64
2017-11-24T18:00:47.927Z,79.61
2017-11-24T18:03:15.435Z,79.50
2017-11-24T18:05:42.979Z,83.42
2017-11-24T18:08:10.472Z,83.71
2017-11-24T18:10:37.977Z,83.89
2017-11-24T18:13:05.500Z,82.92
2017-11-24T18:15:33.018Z,84.18
2017-11-24T18:18:00.519Z,82.05
2017-11-24T18:20:28.032Z,81.76
2017-11-24T18:22:55.546Z,81.96
2017-11-24T18:25:23.049Z,80.92
2017-11-24T18:27:50.551Z,80.65
2017-11-24T18:30:18.082Z,80.64
2017-11-24T18:32:45.604Z,80.79
2017-11-24T18:35:13.118Z,81.37
2017-11-24T18:37:40.639Z,81.37
2017-11-24T18:40:08.167Z,81.80
2017-11-24T18:42:35.710Z,81.64
2017-11-24T18:45:03.248Z,82.16
2017-11-24T18:47:31.022Z,82.84
2017-11-24T18:49:58.531Z,82.21
2017-11-24T18:52:26.051Z,83.93
2017-11-24T18:54:53.691Z,82.61
2017-11-24T18:57:21.212Z,81.75
2017-11-24T18:59:48.712Z,80.54
2017-11-24T19:02:16.237Z,81.67
2017-11-24T19:04:43.755Z,83.32
2017-11-24T19:07:11.257Z,82.24
2017-11-24T19:09:38.795Z,81.96
2017-11-24T19:12:06.312Z,81.26
2017-11-24T19:14:33.823Z,82.03
2017-11-24T19:17:01.382Z,81.47
2017-11-24T19:19:28.908Z,80.71
2017-11-24T19:21:56.411Z,81.28
2017-11-24T19:24:25.570Z,82.62
2017-11-24T19:26:53.098Z,83.32
2017-11-24T19:29:20.604Z,84.06
2017-11-24T19:31:48.104Z,84.86
2017-11-24T19:34:15.611Z,86.53
2017-11-24T19:36:43.257Z,85.52
2017-11-24T19:39:10.746Z,85.88
2017-11-24T19:41:38.278Z,87.40
2017-11-24T19:44:05.828Z,87.73
2017-11-24T19:46:33.374Z,87.00
2017-11-24T19:49:00.944Z,88.55
2017-11-24T19:51:28.504Z,88.75
2017-11-24T19:53:56.084Z,90.03
2017-11-24T19:56:23.645Z,93.74
2017-11-24T19:58:51.308Z,92.69
2017-11-24T20:01:19.111Z,95.55
2017-11-24T20:03:46.968Z,96.13
2017-11-24T20:06:14.846Z,95.28
2017-11-24T20:08:42.701Z,93.99
2017-11-24T20:11:10.672Z,94.83
2017-11-24T20:13:38.533Z,94.46
2017-11-24T20:16:06.537Z,94.28
2017-11-24T20:18:34.473Z,96.29
2017-11-24T20:21:02.440Z,95.71
2017-11-24T20:23:30.307Z,96.66
2017-11-24T20:25:58.275Z,95.93
2017-11-24T20:28:26.241Z,95.80
2017-11-24T20:30:54.095Z,96.22
2017-11-24T20:33:22.178Z,95.29
2017-11-24T20:35:50.054Z,96.60
2017-11-24T20:38:18.034Z,96.36
2017-11-24T20:40:57.869Z,95.03
2017-11-24T20:43:25.825Z,94.42
2017-11-24T20:45:53.693Z,94.59
2017-11-24T20:48:21.663Z,94.95
2017-11-24T20:50:50.373Z,95.34
2017-11-24T20:53:18.320Z,96.24
2017-11-24T20:55:46.389Z,95.60
2017-11-24T20:58:14.565Z,96.13
2017-11-24T21:00:42.427Z,95.81
2017-11-24T21:03:10.293Z,96.80
2017-11-24T21:05:38.161Z,96.74
2017-11-24T21:08:06.023Z,98.15
2017-11-24T21:10:33.878Z,98.20
2017-11-24T21:13:01.654Z,98.13
2017-11-24T21:15:29.386Z,96.70
2017-11-24T21:17:57.074Z,98.03
2017-11-24T21:20:24.742Z,98.39
2017-11-24T21:22:52.278Z,98.83
2017-11-24T21:25:19.781Z,98.40
2017-11-24T21:27:47.299Z,96.16
2017-11-24T21:30:14.817Z,95.63
2017-11-24T21:32:42.381Z,96.67
2017-11-24T21:35:09.893Z,96.84
2017-11-24T21:37:37.403Z,96.10
2017-11-24T21:40:04.915Z,96.90
2017-11-24T21:42:32.417Z,96.89
2017-11-24T21:44:59.914Z,96.42
2017-11-24T21:47:27.417Z,95.85
2017-11-24T21:49:54.944Z,96.40
2017-11-24T21:52:22.435Z,97.89
2017-11-24T21:54:49.929Z,98.70
2017-11-24T21:57:17.478Z,98.27
2017-11-24T21:59:44.985Z,97.89
2017-11-24T22:02:12.487Z,97.08
2017-11-24T22:04:39.988Z,97.18
2017-11-24T22:07:07.549Z,97.06
2017-11-24T22:09:35.051Z,99.02
2017-11-24T22:12:02.705Z,99.29
2017-11-24T22:14:30.238Z,98.98
2017-11-24T22:16:57.740Z,97.81
2017-11-24T22:19:25.231Z,98.22
2017-11-24T22:21:52.742Z,97.52
2017-11-24T22:24:20.254Z,97.40
2017-11-24T22:26:47.788Z,96.98
2017-11-24T22:29:15.297Z,97.00
2017-11-24T22:31:42.791Z,96.53
2017-11-24T22:34:10.296Z,96.11
2017-11-24T22:36:37.817Z,96.44
2017-11-24T22:39:05.358Z,96.78
2017-11-24T22:41:32.877Z,96.08
2017-11-24T22:44:00.389Z,96.45
2017-11-24T22:46:27.929Z,97.14
2017-11-24T22:48:55.432Z,96.78
2017-11-24T22:51:22.930Z,96.41
2017-11-24T22:53:50.431Z,97.40
2017-11-24T22:56:17.934Z,96.98
2017-11-24T22:58:45.470Z,97.56
2017-11-24T23:01:12.993Z,97.90
2017-11-24T23:03:40.511Z,98.29
2017-11-24T23:06:08.025Z,98.73
2017-11-24T23:08:35.560Z,99.37
2017-11-24T23:11:03.069Z,99.67
2017-11-24T23:13:30.596Z,99.45
2017-11-24T23:15:58.091Z,99.64
2017-11-24T23:18:25.591Z,99.42
2017-11-24T23:20:53.102Z,99.00
2017-11-24T23:23:20.603Z,98.73
2017-11-24T23:25:48.097Z,98.17
2017-11-24T23:28:15.582Z,97.47
2017-11-24T23:30:43.099Z,96.95
2017-11-24T23:33:10.595Z,98.61
2017-11-24T23:35:38.105Z,99.04
2017-11-24T23:38:05.678Z,99.72
2017-11-24T23:40:33.180Z,99.46
2017-11-24T23:43:00.798Z,99.31
2017-11-24T23:45:28.297Z,100.00
2017-11-24T23:47:55.791Z,99.87
2017-11-24T23:50:23.281Z,99.05
2017-11-24T23:52:50.775Z,98.33
2017-11-24T23:55:18.270Z,98.19
2017-11-24T23:57:45.790Z,97.71
